createdAt,value
2017-07-20T00:04:06.888Z,84.00
2017-07-20T00:09:10.978Z,84.30
2017-07-20T00:14:14.194Z,84.10
2017-07-20T00:19:17.383Z,83.60
2017-07-20T00:24:20.550Z,83.00
2017-07-20T00:29:24.535Z,84.50
2017-07-20T00:34:27.722Z,84.30
2017-07-20T00:39:30.904Z,84.30
2017-07-20T00:44:34.095Z,84.60
2017-07-20T00:49:38.038Z,86.20
2017-07-20T00:54:41.248Z,86.00
2017-07-20T00:59:44.435Z,85.60
2017-07-20T01:04:48.470Z,84.60
2017-07-20T01:09:51.655Z,84.40
2017-07-20T01:14:55.600Z,84.00
2017-07-20T01:19:58.794Z,83.70
2017-07-20T01:25:02.730Z,84.60
2017-07-20T01:30:05.930Z,84.30
2017-07-20T01:35:09.909Z,82.10
2017-07-20T01:40:13.094Z,81.80
2017-07-20T01:45:16.277Z,81.50
2017-07-20T01:50:19.481Z,83.70
2017-07-20T01:55:22.677Z,83.60
2017-07-20T02:00:26.665Z,84.10
2017-07-20T02:05:29.857Z,83.80
2017-07-20T02:10:33.074Z,86.70
2017-07-20T02:15:36.335Z,91.00
2017-07-20T02:20:39.505Z,93.60
2017-07-20T02:25:42.697Z,96.60
2017-07-20T02:30:45.899Z,96.90
2017-07-20T02:35:49.216Z,96.50
2017-07-20T02:40:52.399Z,98.10
2017-07-20T02:45:55.590Z,98.30
2017-07-20T02:50:58.779Z,98.90
2017-07-20T02:56:02.812Z,97.80
2017-07-20T03:01:06.739Z,96.70
2017-07-20T03:06:09.926Z,96.50
2017-07-20T03:11:13.908Z,93.90
2017-07-20T03:16:17.130Z,93.70
2017-07-20T03:21:20.309Z,95.40
2017-07-20T03:26:23.486Z,98.40
2017-07-20T03:31:26.695Z,97.70
2017-07-20T03:36:30.630Z,99.90
2017-07-20T03:41:33.815Z,99.70
2017-07-20T03:46:37.770Z,99.90
2017-07-20T03:51:40.997Z,99.90
2017-07-20T03:56:44.191Z,99.00
2017-07-20T04:01:47.538Z,99.00
2017-07-20T04:06:50.748Z,98.90
2017-07-20T04:11:53.973Z,99.10
2017-07-20T04:16:57.931Z,98.10
2017-07-20T04:22:01.114Z,97.90
2017-07-20T04:27:05.066Z,99.90
2017-07-20T04:32:08.463Z,99.90
2017-07-20T04:37:11.657Z,99.80
2017-07-20T04:42:15.595Z,99.60
2017-07-20T04:47:18.802Z,99.30
2017-07-20T04:52:22.007Z,97.40
2017-07-20T04:57:25.192Z,98.40
2017-07-20T05:02:29.197Z,99.10
2017-07-20T05:07:32.372Z,98.80
2017-07-20T05:12:35.569Z,99.60
2017-07-20T05:17:38.754Z,99.80
2017-07-20T05:22:41.941Z,99.90
2017-07-20T05:27:45.887Z,99.30
2017-07-20T05:32:49.087Z,99.00
2017-07-20T05:37:52.264Z,98.40
2017-07-20T05:42:55.502Z,96.80
2017-07-20T05:47:58.725Z,94.50
2017-07-20T05:53:01.926Z,93.40
2017-07-20T05:58:05.124Z,91.60
2017-07-20T06:03:08.315Z,92.70
2017-07-20T06:08:12.294Z,92.10
2017-07-20T06:13:15.482Z,91.80
2017-07-20T06:18:18.714Z,87.40
2017-07-20T06:23:21.905Z,86.70
2017-07-20T06:28:25.120Z,85.30
2017-07-20T06:33:28.306Z,85.70
2017-07-20T06:38:31.511Z,85.70
2017-07-20T06:43:34.718Z,86.40
2017-07-20T06:48:37.906Z,85.80
2017-07-20T06:53:41.887Z,85.50
2017-07-20T06:58:45.067Z,85.30
2017-07-20T07:03:48.278Z,85.10
2017-07-20T07:08:51.477Z,84.80
2017-07-20T07:13:54.658Z,83.60
2017-07-20T07:18:57.889Z,79.90
2017-07-20T07:24:01.101Z,79.00
2017-07-20T07:29:04.309Z,78.70
2017-07-20T07:34:07.500Z,77.60
2017-07-20T07:39:10.702Z,76.70
2017-07-20T07:44:13.897Z,74.50
2017-07-20T07:49:17.857Z,78.80
2017-07-20T07:54:21.057Z,77.60
2017-07-20T07:59:24.230Z,76.60
2017-07-20T08:04:28.198Z,78.70
2017-07-20T08:09:31.475Z,78.00
2017-07-20T08:14:35.496Z,77.80
2017-07-20T08:19:39.524Z,80.10
2017-07-20T08:24:43.475Z,81.70
2017-07-20T08:29:46.667Z,80.90
2017-07-20T08:34:49.892Z,82.70
2017-07-20T08:39:53.107Z,83.00
2017-07-20T08:44:56.305Z,80.20
2017-07-20T08:49:59.615Z,81.10
2017-07-20T08:55:02.796Z,81.30
2017-07-20T09:00:06.005Z,79.90
2017-07-20T09:05:09.252Z,81.00
2017-07-20T09:10:12.513Z,80.80
2017-07-20T09:15:16.477Z,77.60
2017-07-20T09:20:19.667Z,77.30
2017-07-20T09:25:22.868Z,76.00
2017-07-20T09:30:26.061Z,72.40
2017-07-20T09:35:29.378Z,70.00
2017-07-20T09:40:32.576Z,69.40
2017-07-20T09:45:35.782Z,68.80
2017-07-20T09:50:38.989Z,70.60
2017-07-20T09:55:42.221Z,70.60
2017-07-20T10:00:45.404Z,70.00
2017-07-20T10:05:48.601Z,70.20
2017-07-20T10:10:52.556Z,72.80
2017-07-20T10:15:55.765Z,72.60
2017-07-20T10:20:58.961Z,78.40
2017-07-20T10:26:02.174Z,77.80
2017-07-20T10:31:05.381Z,78.90
2017-07-20T10:36:08.592Z,79.50
2017-07-20T10:41:11.808Z,79.60
2017-07-20T10:46:14.984Z,78.90
2017-07-20T10:51:18.183Z,77.80
2017-07-20T10:56:22.138Z,80.20
2017-07-20T11:01:25.329Z,79.60
2017-07-20T11:06:28.569Z,82.30
2017-07-20T11:11:31.773Z,81.10
2017-07-20T11:16:34.964Z,79.40
2017-07-20T11:21:38.177Z,80.90
2017-07-20T11:26:41.386Z,82.00
2017-07-20T11:31:44.605Z,85.20
2017-07-20T11:36:47.797Z,87.70
2017-07-20T11:41:51.049Z,87.30
2017-07-20T11:46:54.203Z,86.50
2017-07-20T11:51:57.405Z,86.50
2017-07-20T11:57:00.634Z,85.30
2017-07-20T12:02:03.961Z,80.50
2017-07-20T12:07:07.168Z,80.40
2017-07-20T12:12:10.355Z,77.60
2017-07-20T12:17:13.581Z,74.70
2017-07-20T12:22:16.775Z,72.60
2017-07-20T12:27:19.992Z,72.10
2017-07-20T12:32:23.203Z,70.10
2017-07-20T12:37:26.391Z,69.90
2017-07-20T12:42:29.590Z,69.10
2017-07-20T12:47:32.767Z,70.80
2017-07-20T12:52:36.746Z,72.90
2017-07-20T12:57:39.952Z,72.50
2017-07-20T13:02:43.158Z,71.20
2017-07-20T13:07:46.373Z,71.20
2017-07-20T13:12:49.554Z,70.00
2017-07-20T13:17:52.762Z,68.10
2017-07-20T13:22:55.961Z,67.70
2017-07-20T13:27:59.153Z,66.50
2017-07-20T13:33:02.346Z,64.90
2017-07-20T13:38:05.561Z,65.00
2017-07-20T13:43:08.764Z,67.80
2017-07-20T13:48:11.981Z,66.90
2017-07-20T13:53:15.181Z,67.10
2017-07-20T13:58:18.851Z,66.60
2017-07-20T14:03:22.060Z,67.60
2017-07-20T14:08:25.253Z,68.20
2017-07-20T14:13:28.521Z,69.40
2017-07-20T14:18:31.793Z,70.30
2017-07-20T14:23:35.082Z,68.30
2017-07-20T14:28:38.279Z,66.60
2017-07-20T14:33:41.466Z,65.50
2017-07-20T14:38:44.677Z,64.90
2017-07-20T14:43:47.865Z,65.00
2017-07-20T14:48:51.059Z,66.40
2017-07-20T14:53:55.014Z,70.20
2017-07-20T14:58:58.229Z,70.10
2017-07-20T15:04:01.422Z,69.50
2017-07-20T15:09:04.634Z,70.10
2017-07-20T15:14:07.829Z,68.40
2017-07-20T15:19:11.114Z,67.30
2017-07-20T15:24:15.143Z,69.00
2017-07-20T15:29:19.108Z,67.60
2017-07-20T15:34:22.285Z,67.30
2017-07-20T15:39:25.468Z,66.60
2017-07-20T15:44:29.447Z,64.00
2017-07-20T15:49:32.641Z,63.00
2017-07-20T15:54:35.879Z,61.50
2017-07-20T15:59:39.058Z,60.40
2017-07-20T16:04:42.394Z,59.30
2017-07-20T16:09:45.661Z,58.30
2017-07-20T16:14:48.849Z,58.40
2017-07-20T16:19:52.832Z,56.90
2017-07-20T16:24:56.083Z,56.40
2017-07-20T16:30:00.074Z,57.40
2017-07-20T16:35:03.324Z,56.90
2017-07-20T16:40:07.252Z,56.40
2017-07-20T16:45:10.457Z,53.00
2017-07-20T16:50:14.391Z,53.40
2017-07-20T16:55:17.593Z,53.30
2017-07-20T17:00:20.797Z,53.80
2017-07-20T17:05:24.019Z,53.80
2017-07-20T17:10:28.090Z,51.00
2017-07-20T17:15:31.290Z,50.60
2017-07-20T17:20:34.509Z,49.90
2017-07-20T17:25:37.706Z,47.80
2017-07-20T17:30:40.933Z,44.10
2017-07-20T17:35:44.115Z,43.50
2017-07-20T17:40:47.331Z,43.50
2017-07-20T17:45:50.548Z,42.20
2017-07-20T17:50:53.729Z,43.80
2017-07-20T17:55:56.928Z,42.60
2017-07-20T18:01:00.141Z,43.30
2017-07-20T18:06:03.341Z,43.50
2017-07-20T18:11:06.544Z,44.40
2017-07-20T18:16:09.761Z,45.30
2017-07-20T18:21:13.218Z,44.50
2017-07-20T18:26:17.173Z,44.60
2017-07-20T18:31:20.388Z,44.60
2017-07-20T18:36:23.579Z,44.20
2017-07-20T18:41:26.793Z,44.90
2017-07-20T18:46:29.990Z,44.90
2017-07-20T18:51:33.186Z,46.00
2017-07-20T18:56:36.409Z,46.30
2017-07-20T19:01:39.628Z,47.10
2017-07-20T19:06:42.842Z,47.60
2017-07-20T19:11:46.070Z,47.90
2017-07-20T19:16:49.286Z,48.60
2017-07-20T19:21:52.455Z,48.90
2017-07-20T19:26:55.717Z,49.30
2017-07-20T19:31:59.649Z,50.60
2017-07-20T19:37:03.610Z,51.40
2017-07-20T19:42:06.800Z,51.60
2017-07-20T19:47:09.993Z,52.70
2017-07-20T19:52:13.970Z,59.60
2017-07-20T19:57:17.119Z,59.40
2017-07-20T20:02:21.116Z,65.50
2017-07-20T20:07:24.282Z,64.50
2017-07-20T20:12:27.493Z,55.90
2017-07-20T20:17:30.715Z,56.60
2017-07-20T20:22:33.921Z,56.30
2017-07-20T20:27:37.131Z,57.00
2017-07-20T20:32:40.329Z,56.90
2017-07-20T20:37:43.561Z,57.40
2017-07-20T20:42:46.741Z,58.90
2017-07-20T20:47:49.958Z,58.40
2017-07-20T20:52:53.106Z,59.50
2017-07-20T20:57:56.465Z,61.30
2017-07-20T21:02:59.633Z,61.50
2017-07-20T21:08:02.861Z,62.40
2017-07-20T21:13:06.109Z,62.40
2017-07-20T21:18:09.301Z,62.40
2017-07-20T21:23:12.502Z,61.10
2017-07-20T21:28:15.797Z,61.30
2017-07-20T21:33:19.017Z,61.40
2017-07-20T21:38:22.158Z,62.20
2017-07-20T21:43:25.377Z,62.50
2017-07-20T21:48:29.348Z,64.00
2017-07-20T21:53:32.548Z,64.30
2017-07-20T21:58:35.736Z,62.70
2017-07-20T22:03:38.939Z,64.90
2017-07-20T22:08:42.883Z,91.00
2017-07-20T22:13:46.070Z,87.60
2017-07-20T22:18:49.305Z,86.10
2017-07-20T22:23:52.687Z,87.20
2017-07-20T22:28:56.629Z,84.30
2017-07-20T22:33:59.823Z,82.60
2017-07-20T22:39:03.035Z,82.80
2017-07-20T22:44:06.212Z,82.40
2017-07-20T22:54:41.435Z,82.30
2017-07-20T22:59:44.611Z,83.80
2017-07-20T23:04:48.653Z,72.10
2017-07-20T23:09:52.587Z,72.70
2017-07-20T23:14:55.778Z,72.60
2017-07-20T23:19:59.017Z,73.30
2017-07-20T23:25:02.180Z,73.80
2017-07-20T23:30:06.165Z,73.10
2017-07-20T23:35:09.357Z,73.10
2017-07-20T23:40:12.689Z,73.60
2017-07-20T23:45:15.883Z,73.50
2017-07-20T23:50:19.065Z,73.60
2017-07-20T23:55:22.256Z,74.00
